sensor_id;sensor_type;location;lat;lon;timestamp;temperature;humidity
27413;DHT22;14871;52.702;5.230;2024-03-02T00:00:11;10.30;99.90
27413;DHT22;14871;52.702;5.230;2024-03-02T00:02:47;10.20;99.90
27413;DHT22;14871;52.702;5.230;2024-03-02T00:05:22;10.20;99.90
27413;DHT22;14871;52.702;5.230;2024-03-02T00:07:56;10.20;99.90
27413;DHT22;14871;52.702;5.230;2024-03-02T00:10:43;10.20;99.90
27413;DHT22;14871;52.702;5.230;2024-03-02T00:13:09;10.20;99.90
27413;DHT22;14871;52.702;5.230;2024-03-02T00:15:48;10.10;99.90
27413;DHT22;14871;52.702;5.230;2024-03-02T00:18:39;10.30;99.90
27413;DHT22;14871;52.702;5.230;2024-03-02T00:21:06;10.30;99.90
27413;DHT22;14871;52.702;5.230;2024-03-02T00:23:34;10.40;99.90
27413;DHT22;14871;52.702;5.230;2024-03-02T00:26:01;10.40;99.90
27413;DHT22;14871;52.702;5.230;2024-03-02T00:28:30;10.20;99.90
27413;DHT22;14871;52.702;5.230;2024-03-02T00:31:05;10.40;99.90
27413;DHT22;14871;52.702;5.230;2024-03-02T00:33:36;10.30;99.90
27413;DHT22;14871;52.702;5.230;2024-03-02T00:36:05;10.30;99.90
27413;DHT22;14871;52.702;5.230;2024-03-02T00:38:32;10.20;99.90
27413;DHT22;14871;52.702;5.230;2024-03-02T00:41:08;10.20;99.90
27413;DHT22;14871;52.702;5.230;2024-03-02T00:43:57;10.20;99.90
27413;DHT22;14871;52.702;5.230;2024-03-02T00:46:22;10.30;99.90
27413;DHT22;14871;52.702;5.230;2024-03-02T00:51:14;10.40;99.90
27413;DHT22;14871;52.702;5.230;2024-03-02T00:53:40;10.30;99.90
27413;DHT22;14871;52.702;5.230;2024-03-02T00:56:09;10.20;99.90
27413;DHT22;14871;52.702;5.230;2024-03-02T00:58:36;10.20;99.90
27413;DHT22;14871;52.702;5.230;2024-03-02T01:01:02;10.30;99.90
27413;DHT22;14871;52.702;5.230;2024-03-02T01:03:27;10.50;99.90
27413;DHT22;14871;52.702;5.230;2024-03-02T01:05:53;10.90;99.90
27413;DHT22;14871;52.702;5.230;2024-03-02T01:08:18;11.20;99.90
27413;DHT22;14871;52.702;5.230;2024-03-02T01:10:44;11.10;99.90
27413;DHT22;14871;52.702;5.230;2024-03-02T01:13:10;10.90;99.90
27413;DHT22;14871;52.702;5.230;2024-03-02T01:15:35;10.70;99.90
27413;DHT22;14871;52.702;5.230;2024-03-02T01:18:01;10.90;99.90
27413;DHT22;14871;52.702;5.230;2024-03-02T01:20:27;10.70;99.90
27413;DHT22;14871;52.702;5.230;2024-03-02T01:22:52;10.50;99.90
27413;DHT22;14871;52.702;5.230;2024-03-02T01:25:18;10.60;99.90
27413;DHT22;14871;52.702;5.230;2024-03-02T01:27:44;10.80;99.90
27413;DHT22;14871;52.702;5.230;2024-03-02T01:30:10;10.60;99.90
27413;DHT22;14871;52.702;5.230;2024-03-02T01:32:38;10.50;99.90
27413;DHT22;14871;52.702;5.230;2024-03-02T01:35:04;10.50;99.90
27413;DHT22;14871;52.702;5.230;2024-03-02T01:37:30;10.40;99.90
27413;DHT22;14871;52.702;5.230;2024-03-02T01:39:56;10.30;99.90
27413;DHT22;14871;52.702;5.230;2024-03-02T01:42:21;10.00;99.90
27413;DHT22;14871;52.702;5.230;2024-03-02T01:44:47;10.10;99.90
27413;DHT22;14871;52.702;5.230;2024-03-02T01:47:13;10.20;99.90
27413;DHT22;14871;52.702;5.230;2024-03-02T01:49:41;10.30;99.90
27413;DHT22;14871;52.702;5.230;2024-03-02T01:52:07;10.10;99.90
27413;DHT22;14871;52.702;5.230;2024-03-02T01:54:32;10.10;99.90
27413;DHT22;14871;52.702;5.230;2024-03-02T01:56:59;9.90;99.90
27413;DHT22;14871;52.702;5.230;2024-03-02T01:59:25;10.00;99.90
27413;DHT22;14871;52.702;5.230;2024-03-02T02:01:50;10.00;99.90
27413;DHT22;14871;52.702;5.230;2024-03-02T02:04:16;9.90;99.90
27413;DHT22;14871;52.702;5.230;2024-03-02T02:06:44;10.00;99.90
27413;DHT22;14871;52.702;5.230;2024-03-02T02:09:09;10.00;99.90
27413;DHT22;14871;52.702;5.230;2024-03-02T02:11:35;9.60;99.90
27413;DHT22;14871;52.702;5.230;2024-03-02T02:14:01;9.80;99.90
27413;DHT22;14871;52.702;5.230;2024-03-02T02:16:26;9.50;99.90
27413;DHT22;14871;52.702;5.230;2024-03-02T02:18:52;9.60;99.90
27413;DHT22;14871;52.702;5.230;2024-03-02T02:21:21;9.70;99.90
27413;DHT22;14871;52.702;5.230;2024-03-02T02:23:47;9.60;99.90
27413;DHT22;14871;52.702;5.230;2024-03-02T02:26:14;9.90;99.90
27413;DHT22;14871;52.702;5.230;2024-03-02T02:28:39;10.10;99.90
27413;DHT22;14871;52.702;5.230;2024-03-02T02:31:15;10.00;99.90
27413;DHT22;14871;52.702;5.230;2024-03-02T02:33:41;9.80;99.90
27413;DHT22;14871;52.702;5.230;2024-03-02T02:36:07;9.80;99.90
27413;DHT22;14871;52.702;5.230;2024-03-02T02:38:33;9.80;99.90
27413;DHT22;14871;52.702;5.230;2024-03-02T02:41:02;9.80;99.90
27413;DHT22;14871;52.702;5.230;2024-03-02T02:43:27;10.00;99.90
27413;DHT22;14871;52.702;5.230;2024-03-02T02:45:53;9.80;99.90
27413;DHT22;14871;52.702;5.230;2024-03-02T02:48:19;9.80;99.90
27413;DHT22;14871;52.702;5.230;2024-03-02T02:50:44;9.70;99.90
27413;DHT22;14871;52.702;5.230;2024-03-02T02:53:10;9.60;99.90
27413;DHT22;14871;52.702;5.230;2024-03-02T02:55:36;9.60;99.90
27413;DHT22;14871;52.702;5.230;2024-03-02T02:58:06;9.60;99.90
27413;DHT22;14871;52.702;5.230;2024-03-02T03:00:32;9.60;99.90
27413;DHT22;14871;52.702;5.230;2024-03-02T03:02:58;9.70;99.90
27413;DHT22;14871;52.702;5.230;2024-03-02T03:05:23;9.60;99.90
27413;DHT22;14871;52.702;5.230;2024-03-02T03:07:49;9.60;99.90
27413;DHT22;14871;52.702;5.230;2024-03-02T03:10:15;9.60;99.90
27413;DHT22;14871;52.702;5.230;2024-03-02T03:12:42;9.60;99.90
27413;DHT22;14871;52.702;5.230;2024-03-02T03:15:09;9.70;99.90
27413;DHT22;14871;52.702;5.230;2024-03-02T03:17:35;9.60;99.90
27413;DHT22;14871;52.702;5.230;2024-03-02T03:20:01;9.40;99.90
27413;DHT22;14871;52.702;5.230;2024-03-02T03:22:28;9.60;99.90
27413;DHT22;14871;52.702;5.230;2024-03-02T03:24:54;9.60;99.90
27413;DHT22;14871;52.702;5.230;2024-03-02T03:27:19;9.50;99.90
27413;DHT22;14871;52.702;5.230;2024-03-02T03:29:45;9.40;99.90
27413;DHT22;14871;52.702;5.230;2024-03-02T03:32:10;9.50;99.90
27413;DHT22;14871;52.702;5.230;2024-03-02T03:34:36;9.60;99.90
27413;DHT22;14871;52.702;5.230;2024-03-02T03:37:02;9.70;99.90
27413;DHT22;14871;52.702;5.230;2024-03-02T03:39:28;9.70;99.90
27413;DHT22;14871;52.702;5.230;2024-03-02T03:41:54;9.40;99.90
27413;DHT22;14871;52.702;5.230;2024-03-02T03:44:20;9.30;99.90
27413;DHT22;14871;52.702;5.230;2024-03-02T03:46:45;9.10;99.90
27413;DHT22;14871;52.702;5.230;2024-03-02T03:49:11;9.00;99.90
27413;DHT22;14871;52.702;5.230;2024-03-02T03:51:37;8.80;99.90
27413;DHT22;14871;52.702;5.230;2024-03-02T03:54:02;9.20;99.90
27413;DHT22;14871;52.702;5.230;2024-03-02T03:56:28;9.10;99.90
27413;DHT22;14871;52.702;5.230;2024-03-02T03:58:53;9.00;99.90
27413;DHT22;14871;52.702;5.230;2024-03-02T04:01:19;8.90;99.90
27413;DHT22;14871;52.702;5.230;2024-03-02T04:03:45;8.90;99.90
27413;DHT22;14871;52.702;5.230;2024-03-02T04:06:10;9.00;99.90
27413;DHT22;14871;52.702;5.230;2024-03-02T04:08:36;9.00;99.90
27413;DHT22;14871;52.702;5.230;2024-03-02T04:11:01;8.90;99.90
27413;DHT22;14871;52.702;5.230;2024-03-02T04:13:28;9.00;99.90
27413;DHT22;14871;52.702;5.230;2024-03-02T04:15:53;9.00;99.90
27413;DHT22;14871;52.702;5.230;2024-03-02T04:18:19;9.20;99.90
27413;DHT22;14871;52.702;5.230;2024-03-02T04:20:45;9.20;99.90
27413;DHT22;14871;52.702;5.230;2024-03-02T04:23:10;9.20;99.90
27413;DHT22;14871;52.702;5.230;2024-03-02T04:25:36;9.00;99.90
27413;DHT22;14871;52.702;5.230;2024-03-02T04:28:01;9.20;99.90
27413;DHT22;14871;52.702;5.230;2024-03-02T04:30:27;9.00;99.90
27413;DHT22;14871;52.702;5.230;2024-03-02T04:32:52;9.10;99.90
27413;DHT22;14871;52.702;5.230;2024-03-02T04:35:18;9.00;99.90
27413;DHT22;14871;52.702;5.230;2024-03-02T04:37:44;9.10;99.90
27413;DHT22;14871;52.702;5.230;2024-03-02T04:40:10;9.00;99.90
27413;DHT22;14871;52.702;5.230;2024-03-02T04:42:35;8.80;99.90
27413;DHT22;14871;52.702;5.230;2024-03-02T04:45:01;8.90;99.90
27413;DHT22;14871;52.702;5.230;2024-03-02T04:47:27;9.00;99.90
27413;DHT22;14871;52.702;5.230;2024-03-02T04:49:53;9.10;99.90
27413;DHT22;14871;52.702;5.230;2024-03-02T04:52:19;9.00;99.90
27413;DHT22;14871;52.702;5.230;2024-03-02T04:54:45;8.70;99.90
27413;DHT22;14871;52.702;5.230;2024-03-02T04:57:28;8.50;99.90
27413;DHT22;14871;52.702;5.230;2024-03-02T04:59:54;8.70;99.90
27413;DHT22;14871;52.702;5.230;2024-03-02T05:02:20;8.70;99.90
27413;DHT22;14871;52.702;5.230;2024-03-02T05:04:45;8.60;99.90
27413;DHT22;14871;52.702;5.230;2024-03-02T05:07:11;8.60;99.90
27413;DHT22;14871;52.702;5.230;2024-03-02T05:09:37;8.60;99.90
27413;DHT22;14871;52.702;5.230;2024-03-02T05:12:02;8.50;99.90
27413;DHT22;14871;52.702;5.230;2024-03-02T05:14:47;8.50;99.90
27413;DHT22;14871;52.702;5.230;2024-03-02T05:17:12;8.70;99.90
27413;DHT22;14871;52.702;5.230;2024-03-02T05:19:38;8.80;99.90
27413;DHT22;14871;52.702;5.230;2024-03-02T05:22:04;8.80;99.90
27413;DHT22;14871;52.702;5.230;2024-03-02T05:24:29;9.00;99.90
27413;DHT22;14871;52.702;5.230;2024-03-02T05:26:55;9.00;99.90
27413;DHT22;14871;52.702;5.230;2024-03-02T05:29:21;8.90;99.90
27413;DHT22;14871;52.702;5.230;2024-03-02T05:31:47;8.80;99.90
27413;DHT22;14871;52.702;5.230;2024-03-02T05:34:12;8.80;99.90
27413;DHT22;14871;52.702;5.230;2024-03-02T05:36:38;8.80;99.90
27413;DHT22;14871;52.702;5.230;2024-03-02T05:39:05;9.00;99.90
27413;DHT22;14871;52.702;5.230;2024-03-02T05:41:32;8.90;99.90
27413;DHT22;14871;52.702;5.230;2024-03-02T05:43:57;8.80;99.90
27413;DHT22;14871;52.702;5.230;2024-03-02T05:46:23;8.70;99.90
27413;DHT22;14871;52.702;5.230;2024-03-02T05:48:48;8.70;99.90
27413;DHT22;14871;52.702;5.230;2024-03-02T05:51:14;8.60;99.90
27413;DHT22;14871;52.702;5.230;2024-03-02T05:53:39;8.60;99.90
27413;DHT22;14871;52.702;5.230;2024-03-02T05:56:06;8.80;99.90
27413;DHT22;14871;52.702;5.230;2024-03-02T05:58:32;8.90;99.90
27413;DHT22;14871;52.702;5.230;2024-03-02T06:01:21;8.90;99.90
27413;DHT22;14871;52.702;5.230;2024-03-02T06:03:56;9.00;99.90
27413;DHT22;14871;52.702;5.230;2024-03-02T06:06:22;8.90;99.90
27413;DHT22;14871;52.702;5.230;2024-03-02T06:08:48;8.80;99.90
27413;DHT22;14871;52.702;5.230;2024-03-02T06:11:13;8.80;99.90
27413;DHT22;14871;52.702;5.230;2024-03-02T06:13:39;8.90;99.90
27413;DHT22;14871;52.702;5.230;2024-03-02T06:16:05;8.80;99.90
27413;DHT22;14871;52.702;5.230;2024-03-02T06:18:30;8.80;99.90
27413;DHT22;14871;52.702;5.230;2024-03-02T06:20:56;8.50;99.90
27413;DHT22;14871;52.702;5.230;2024-03-02T06:23:22;8.50;99.90
27413;DHT22;14871;52.702;5.230;2024-03-02T06:25:47;8.50;99.90
27413;DHT22;14871;52.702;5.230;2024-03-02T06:28:13;8.50;99.90
27413;DHT22;14871;52.702;5.230;2024-03-02T06:30:41;8.60;99.90
27413;DHT22;14871;52.702;5.230;2024-03-02T06:33:07;8.50;99.90
27413;DHT22;14871;52.702;5.230;2024-03-02T06:35:33;8.50;99.90
27413;DHT22;14871;52.702;5.230;2024-03-02T06:37:58;8.50;99.90
27413;DHT22;14871;52.702;5.230;2024-03-02T06:40:24;8.50;99.90
27413;DHT22;14871;52.702;5.230;2024-03-02T06:42:50;8.60;99.90
27413;DHT22;14871;52.702;5.230;2024-03-02T06:45:15;8.70;99.90
27413;DHT22;14871;52.702;5.230;2024-03-02T06:47:41;8.60;99.90
27413;DHT22;14871;52.702;5.230;2024-03-02T06:50:07;8.60;99.90
27413;DHT22;14871;52.702;5.230;2024-03-02T06:52:32;8.70;99.90
27413;DHT22;14871;52.702;5.230;2024-03-02T06:54:58;8.50;99.90
27413;DHT22;14871;52.702;5.230;2024-03-02T06:57:23;8.50;99.90
27413;DHT22;14871;52.702;5.230;2024-03-02T06:59:50;8.40;99.90
27413;DHT22;14871;52.702;5.230;2024-03-02T07:02:16;8.60;99.90
27413;DHT22;14871;52.702;5.230;2024-03-02T07:04:42;8.40;99.90
27413;DHT22;14871;52.702;5.230;2024-03-02T07:07:08;8.30;99.90
27413;DHT22;14871;52.702;5.230;2024-03-02T07:09:33;8.40;99.90
27413;DHT22;14871;52.702;5.230;2024-03-02T07:11:59;8.50;99.90
27413;DHT22;14871;52.702;5.230;2024-03-02T07:14:24;8.60;99.90
27413;DHT22;14871;52.702;5.230;2024-03-02T07:17:10;8.50;99.90
27413;DHT22;14871;52.702;5.230;2024-03-02T07:19:36;8.60;99.90
27413;DHT22;14871;52.702;5.230;2024-03-02T07:22:06;8.50;99.90
27413;DHT22;14871;52.702;5.230;2024-03-02T07:24:32;8.50;99.90
27413;DHT22;14871;52.702;5.230;2024-03-02T07:26:57;8.50;99.90
27413;DHT22;14871;52.702;5.230;2024-03-02T07:29:23;8.80;99.90
27413;DHT22;14871;52.702;5.230;2024-03-02T07:31:48;8.80;99.90
27413;DHT22;14871;52.702;5.230;2024-03-02T07:34:14;8.80;99.90
27413;DHT22;14871;52.702;5.230;2024-03-02T07:36:40;9.00;99.90
27413;DHT22;14871;52.702;5.230;2024-03-02T07:39:06;8.90;99.90
27413;DHT22;14871;52.702;5.230;2024-03-02T07:41:32;9.20;99.90
27413;DHT22;14871;52.702;5.230;2024-03-02T07:43:58;9.40;99.90
27413;DHT22;14871;52.702;5.230;2024-03-02T07:46:24;9.60;99.90
27413;DHT22;14871;52.702;5.230;2024-03-02T07:48:49;9.70;99.90
27413;DHT22;14871;52.702;5.230;2024-03-02T07:51:17;9.70;99.90
27413;DHT22;14871;52.702;5.230;2024-03-02T07:53:42;9.80;99.90
27413;DHT22;14871;52.702;5.230;2024-03-02T07:56:08;9.70;99.90
27413;DHT22;14871;52.702;5.230;2024-03-02T07:58:34;9.90;99.90
27413;DHT22;14871;52.702;5.230;2024-03-02T08:01:00;9.80;99.90
27413;DHT22;14871;52.702;5.230;2024-03-02T08:03:26;9.90;99.90
27413;DHT22;14871;52.702;5.230;2024-03-02T08:05:52;9.90;99.90
27413;DHT22;14871;52.702;5.230;2024-03-02T08:08:18;10.00;99.90
27413;DHT22;14871;52.702;5.230;2024-03-02T08:10:44;10.00;99.90
27413;DHT22;14871;52.702;5.230;2024-03-02T08:13:09;9.90;99.90
27413;DHT22;14871;52.702;5.230;2024-03-02T08:15:35;9.80;99.90
27413;DHT22;14871;52.702;5.230;2024-03-02T08:18:01;9.90;99.90
27413;DHT22;14871;52.702;5.230;2024-03-02T08:20:26;10.00;99.90
27413;DHT22;14871;52.702;5.230;2024-03-02T08:22:52;10.10;99.90
27413;DHT22;14871;52.702;5.230;2024-03-02T08:25:20;10.20;99.90
27413;DHT22;14871;52.702;5.230;2024-03-02T08:27:46;9.90;99.90
27413;DHT22;14871;52.702;5.230;2024-03-02T08:30:12;10.10;99.90
27413;DHT22;14871;52.702;5.230;2024-03-02T08:32:38;10.40;99.90
27413;DHT22;14871;52.702;5.230;2024-03-02T08:35:04;10.40;99.90
27413;DHT22;14871;52.702;5.230;2024-03-02T08:37:30;10.60;99.90
27413;DHT22;14871;52.702;5.230;2024-03-02T08:39:56;10.70;99.90
27413;DHT22;14871;52.702;5.230;2024-03-02T08:42:22;10.80;99.90
27413;DHT22;14871;52.702;5.230;2024-03-02T08:44:48;10.90;99.90
27413;DHT22;14871;52.702;5.230;2024-03-02T08:47:14;10.90;99.90
27413;DHT22;14871;52.702;5.230;2024-03-02T08:49:39;11.00;99.90
27413;DHT22;14871;52.702;5.230;2024-03-02T08:52:05;11.20;99.90
27413;DHT22;14871;52.702;5.230;2024-03-02T08:54:31;11.30;99.90
27413;DHT22;14871;52.702;5.230;2024-03-02T08:56:57;11.60;99.90
27413;DHT22;14871;52.702;5.230;2024-03-02T08:59:23;11.60;99.90
27413;DHT22;14871;52.702;5.230;2024-03-02T09:01:50;11.70;99.90
27413;DHT22;14871;52.702;5.230;2024-03-02T09:04:16;11.90;99.90
27413;DHT22;14871;52.702;5.230;2024-03-02T09:06:42;11.90;99.90
27413;DHT22;14871;52.702;5.230;2024-03-02T09:09:07;12.00;99.90
27413;DHT22;14871;52.702;5.230;2024-03-02T09:11:34;12.20;99.90
27413;DHT22;14871;52.702;5.230;2024-03-02T09:13:59;12.30;99.90
27413;DHT22;14871;52.702;5.230;2024-03-02T09:16:25;12.60;99.90
27413;DHT22;14871;52.702;5.230;2024-03-02T09:18:56;12.90;99.90
27413;DHT22;14871;52.702;5.230;2024-03-02T09:21:22;13.00;99.90
27413;DHT22;14871;52.702;5.230;2024-03-02T09:23:48;13.20;99.90
27413;DHT22;14871;52.702;5.230;2024-03-02T09:26:14;13.10;99.90
27413;DHT22;14871;52.702;5.230;2024-03-02T09:28:43;13.20;99.90
27413;DHT22;14871;52.702;5.230;2024-03-02T09:31:09;13.40;99.90
27413;DHT22;14871;52.702;5.230;2024-03-02T09:33:35;13.30;99.90
27413;DHT22;14871;52.702;5.230;2024-03-02T09:36:00;13.60;99.90
27413;DHT22;14871;52.702;5.230;2024-03-02T09:38:26;14.00;99.90
27413;DHT22;14871;52.702;5.230;2024-03-02T09:40:51;14.20;99.90
27413;DHT22;14871;52.702;5.230;2024-03-02T09:43:17;14.20;99.90
27413;DHT22;14871;52.702;5.230;2024-03-02T09:45:44;14.10;99.90
27413;DHT22;14871;52.702;5.230;2024-03-02T09:48:10;14.40;99.90
27413;DHT22;14871;52.702;5.230;2024-03-02T09:50:36;14.80;99.90
27413;DHT22;14871;52.702;5.230;2024-03-02T09:53:01;15.20;99.90
27413;DHT22;14871;52.702;5.230;2024-03-02T09:55:27;15.30;99.90
27413;DHT22;14871;52.702;5.230;2024-03-02T09:57:53;15.40;99.90
27413;DHT22;14871;52.702;5.230;2024-03-02T10:00:19;15.50;99.90
27413;DHT22;14871;52.702;5.230;2024-03-02T10:02:44;15.30;99.90
27413;DHT22;14871;52.702;5.230;2024-03-02T10:05:11;15.20;99.90
27413;DHT22;14871;52.702;5.230;2024-03-02T10:07:37;15.30;99.90
27413;DHT22;14871;52.702;5.230;2024-03-02T10:10:16;15.20;99.90
27413;DHT22;14871;52.702;5.230;2024-03-02T10:12:41;15.40;99.90
27413;DHT22;14871;52.702;5.230;2024-03-02T10:15:07;16.00;99.90
27413;DHT22;14871;52.702;5.230;2024-03-02T10:17:35;16.20;99.90
27413;DHT22;14871;52.702;5.230;2024-03-02T10:20:26;16.50;99.90
27413;DHT22;14871;52.702;5.230;2024-03-02T10:23:09;16.60;99.90
27413;DHT22;14871;52.702;5.230;2024-03-02T10:25:34;17.00;99.90
27413;DHT22;14871;52.702;5.230;2024-03-02T10:28:00;17.00;99.90
27413;DHT22;14871;52.702;5.230;2024-03-02T10:30:27;17.20;99.90
27413;DHT22;14871;52.702;5.230;2024-03-02T10:32:54;16.60;99.90
27413;DHT22;14871;52.702;5.230;2024-03-02T10:35:21;16.50;99.90
27413;DHT22;14871;52.702;5.230;2024-03-02T10:37:48;16.70;99.90
27413;DHT22;14871;52.702;5.230;2024-03-02T10:40:14;16.70;99.90
27413;DHT22;14871;52.702;5.230;2024-03-02T10:42:41;16.50;99.90
27413;DHT22;14871;52.702;5.230;2024-03-02T10:45:09;17.30;99.90
27413;DHT22;14871;52.702;5.230;2024-03-02T10:47:37;17.50;99.90
27413;DHT22;14871;52.702;5.230;2024-03-02T10:50:05;17.70;99.90
27413;DHT22;14871;52.702;5.230;2024-03-02T10:52:40;17.60;99.90
27413;DHT22;14871;52.702;5.230;2024-03-02T10:55:09;17.70;99.90
27413;DHT22;14871;52.702;5.230;2024-03-02T10:57:54;18.00;99.80
27413;DHT22;14871;52.702;5.230;2024-03-02T11:00:24;17.90;98.50
27413;DHT22;14871;52.702;5.230;2024-03-02T11:03:02;18.10;98.40
27413;DHT22;14871;52.702;5.230;2024-03-02T11:05:34;18.20;97.00
27413;DHT22;14871;52.702;5.230;2024-03-02T11:08:02;18.30;97.20
27413;DHT22;14871;52.702;5.230;2024-03-02T11:10:41;18.70;94.80
27413;DHT22;14871;52.702;5.230;2024-03-02T11:13:09;18.80;94.20
27413;DHT22;14871;52.702;5.230;2024-03-02T11:15:36;18.70;94.60
27413;DHT22;14871;52.702;5.230;2024-03-02T11:18:04;18.90;94.30
27413;DHT22;14871;52.702;5.230;2024-03-02T11:20:43;19.40;92.60
27413;DHT22;14871;52.702;5.230;2024-03-02T11:23:09;19.20;91.70
27413;DHT22;14871;52.702;5.230;2024-03-02T11:25:35;19.30;91.40
27413;DHT22;14871;52.702;5.230;2024-03-02T11:28:05;19.30;90.80
27413;DHT22;14871;52.702;5.230;2024-03-02T11:33:00;18.50;92.10
27413;DHT22;14871;52.702;5.230;2024-03-02T11:35:26;19.00;91.40
27413;DHT22;14871;52.702;5.230;2024-03-02T11:37:52;19.40;90.70
27413;DHT22;14871;52.702;5.230;2024-03-02T11:40:36;19.90;90.50
27413;DHT22;14871;52.702;5.230;2024-03-02T11:43:05;19.50;85.80
27413;DHT22;14871;52.702;5.230;2024-03-02T11:45:31;19.50;88.00
27413;DHT22;14871;52.702;5.230;2024-03-02T11:47:59;20.00;85.50
27413;DHT22;14871;52.702;5.230;2024-03-02T11:50:36;19.80;85.20
27413;DHT22;14871;52.702;5.230;2024-03-02T11:53:09;20.00;81.80
27413;DHT22;14871;52.702;5.230;2024-03-02T11:55:36;20.30;81.20
27413;DHT22;14871;52.702;5.230;2024-03-02T11:58:05;20.20;83.70
27413;DHT22;14871;52.702;5.230;2024-03-02T12:00:31;20.60;81.50
27413;DHT22;14871;52.702;5.230;2024-03-02T12:03:06;19.90;82.30
27413;DHT22;14871;52.702;5.230;2024-03-02T12:05:32;20.10;83.40
27413;DHT22;14871;52.702;5.230;2024-03-02T12:08:00;20.00;82.50
27413;DHT22;14871;52.702;5.230;2024-03-02T12:10:26;20.20;82.30
27413;DHT22;14871;52.702;5.230;2024-03-02T12:13:03;20.50;82.10
27413;DHT22;14871;52.702;5.230;2024-03-02T12:15:31;19.90;83.00
27413;DHT22;14871;52.702;5.230;2024-03-02T12:17:58;20.50;83.70
27413;DHT22;14871;52.702;5.230;2024-03-02T12:20:24;20.60;82.00
27413;DHT22;14871;52.702;5.230;2024-03-02T12:22:54;20.40;80.40
27413;DHT22;14871;52.702;5.230;2024-03-02T12:25:20;20.50;80.80
27413;DHT22;14871;52.702;5.230;2024-03-02T12:27:51;20.20;79.80
27413;DHT22;14871;52.702;5.230;2024-03-02T12:30:18;20.20;81.90
27413;DHT22;14871;52.702;5.230;2024-03-02T12:32:44;20.60;81.80
27413;DHT22;14871;52.702;5.230;2024-03-02T12:35:10;21.10;79.80
27413;DHT22;14871;52.702;5.230;2024-03-02T12:37:48;21.20;76.10
27413;DHT22;14871;52.702;5.230;2024-03-02T12:40:14;21.10;75.80
27413;DHT22;14871;52.702;5.230;2024-03-02T12:42:41;20.50;76.50
27413;DHT22;14871;52.702;5.230;2024-03-02T12:45:09;20.90;76.80
27413;DHT22;14871;52.702;5.230;2024-03-02T12:47:35;20.90;77.50
27413;DHT22;14871;52.702;5.230;2024-03-02T12:50:02;21.50;75.90
27413;DHT22;14871;52.702;5.230;2024-03-02T12:52:29;21.90;74.90
27413;DHT22;14871;52.702;5.230;2024-03-02T12:54:55;22.00;73.50
27413;DHT22;14871;52.702;5.230;2024-03-02T12:57:30;22.10;71.00
27413;DHT22;14871;52.702;5.230;2024-03-02T13:00:04;21.60;71.70
27413;DHT22;14871;52.702;5.230;2024-03-02T13:02:35;21.00;71.10
27413;DHT22;14871;52.702;5.230;2024-03-02T13:05:01;21.10;72.40
27413;DHT22;14871;52.702;5.230;2024-03-02T13:07:28;21.30;72.30
27413;DHT22;14871;52.702;5.230;2024-03-02T13:09:55;21.00;71.40
27413;DHT22;14871;52.702;5.230;2024-03-02T13:12:22;21.60;69.30
27413;DHT22;14871;52.702;5.230;2024-03-02T13:14:53;21.40;70.90
27413;DHT22;14871;52.702;5.230;2024-03-02T13:17:19;21.30;71.50
27413;DHT22;14871;52.702;5.230;2024-03-02T13:20:11;21.60;69.50
27413;DHT22;14871;52.702;5.230;2024-03-02T13:22:39;21.40;68.50
27413;DHT22;14871;52.702;5.230;2024-03-02T13:25:05;21.70;70.10
27413;DHT22;14871;52.702;5.230;2024-03-02T13:27:31;21.90;68.80
27413;DHT22;14871;52.702;5.230;2024-03-02T13:29:57;22.10;70.10
27413;DHT22;14871;52.702;5.230;2024-03-02T13:32:24;22.30;68.60
27413;DHT22;14871;52.702;5.230;2024-03-02T13:34:51;22.20;70.10
27413;DHT22;14871;52.702;5.230;2024-03-02T13:37:17;22.20;69.10
27413;DHT22;14871;52.702;5.230;2024-03-02T13:39:42;22.60;69.30
27413;DHT22;14871;52.702;5.230;2024-03-02T13:42:09;22.40;66.00
27413;DHT22;14871;52.702;5.230;2024-03-02T13:44:35;22.00;67.70
27413;DHT22;14871;52.702;5.230;2024-03-02T13:47:01;21.60;68.70
27413;DHT22;14871;52.702;5.230;2024-03-02T13:49:26;21.30;67.40
27413;DHT22;14871;52.702;5.230;2024-03-02T13:52:03;21.30;67.60
27413;DHT22;14871;52.702;5.230;2024-03-02T13:54:37;21.10;67.60
27413;DHT22;14871;52.702;5.230;2024-03-02T13:57:03;21.20;69.10
27413;DHT22;14871;52.702;5.230;2024-03-02T13:59:29;21.40;67.90
27413;DHT22;14871;52.702;5.230;2024-03-02T14:01:55;21.30;66.80
27413;DHT22;14871;52.702;5.230;2024-03-02T14:04:21;21.00;66.40
27413;DHT22;14871;52.702;5.230;2024-03-02T14:06:50;20.90;65.10
27413;DHT22;14871;52.702;5.230;2024-03-02T14:09:15;20.60;65.40
27413;DHT22;14871;52.702;5.230;2024-03-02T14:11:41;20.00;67.50
27413;DHT22;14871;52.702;5.230;2024-03-02T14:14:07;19.80;69.80
27413;DHT22;14871;52.702;5.230;2024-03-02T14:16:33;20.10;70.60
27413;DHT22;14871;52.702;5.230;2024-03-02T14:19:02;20.00;71.10
27413;DHT22;14871;52.702;5.230;2024-03-02T14:21:30;19.90;72.70
27413;DHT22;14871;52.702;5.230;2024-03-02T14:23:55;20.10;72.10
27413;DHT22;14871;52.702;5.230;2024-03-02T14:26:21;19.90;72.10
27413;DHT22;14871;52.702;5.230;2024-03-02T14:28:47;19.90;71.00
27413;DHT22;14871;52.702;5.230;2024-03-02T14:31:13;19.60;73.20
27413;DHT22;14871;52.702;5.230;2024-03-02T14:33:39;19.70;74.90
27413;DHT22;14871;52.702;5.230;2024-03-02T14:36:05;19.30;77.60
27413;DHT22;14871;52.702;5.230;2024-03-02T14:38:31;19.50;77.30
27413;DHT22;14871;52.702;5.230;2024-03-02T14:40:57;19.20;76.90
27413;DHT22;14871;52.702;5.230;2024-03-02T14:43:24;18.80;76.60
27413;DHT22;14871;52.702;5.230;2024-03-02T14:45:49;18.40;77.00
27413;DHT22;14871;52.702;5.230;2024-03-02T14:48:16;18.30;78.70
27413;DHT22;14871;52.702;5.230;2024-03-02T14:50:42;18.30;80.10
27413;DHT22;14871;52.702;5.230;2024-03-02T14:53:08;18.30;79.80
27413;DHT22;14871;52.702;5.230;2024-03-02T14:55:34;17.90;81.50
27413;DHT22;14871;52.702;5.230;2024-03-02T14:58:00;17.90;82.60
27413;DHT22;14871;52.702;5.230;2024-03-02T15:00:26;17.90;83.70
27413;DHT22;14871;52.702;5.230;2024-03-02T15:02:52;18.10;83.60
27413;DHT22;14871;52.702;5.230;2024-03-02T15:05:17;17.80;83.30
27413;DHT22;14871;52.702;5.230;2024-03-02T15:07:43;17.80;83.50
27413;DHT22;14871;52.702;5.230;2024-03-02T15:10:09;17.60;84.00
27413;DHT22;14871;52.702;5.230;2024-03-02T15:12:35;17.80;83.20
27413;DHT22;14871;52.702;5.230;2024-03-02T15:15:01;17.60;83.70
27413;DHT22;14871;52.702;5.230;2024-03-02T15:17:30;17.70;83.90
27413;DHT22;14871;52.702;5.230;2024-03-02T15:19:55;17.40;84.60
27413;DHT22;14871;52.702;5.230;2024-03-02T15:22:21;17.20;86.90
27413;DHT22;14871;52.702;5.230;2024-03-02T15:24:50;17.60;87.80
27413;DHT22;14871;52.702;5.230;2024-03-02T15:27:16;17.80;87.60
27413;DHT22;14871;52.702;5.230;2024-03-02T15:29:42;17.50;88.70
27413;DHT22;14871;52.702;5.230;2024-03-02T15:32:08;17.40;90.30
27413;DHT22;14871;52.702;5.230;2024-03-02T15:34:37;17.60;90.40
27413;DHT22;14871;52.702;5.230;2024-03-02T15:37:03;17.20;90.90
27413;DHT22;14871;52.702;5.230;2024-03-02T15:39:29;17.10;91.90
27413;DHT22;14871;52.702;5.230;2024-03-02T15:41:55;16.40;92.80